sensor_id;sensor_type;location;lat;lon;timestamp;temperature;humidity
1181;DHT22;579;52.046;8.532;2023-04-25T00:02:56;8.70;1.00
1181;DHT22;579;52.046;8.532;2023-04-25T00:05:25;8.90;1.00
1181;DHT22;579;52.046;8.532;2023-04-25T00:07:51;9.00;1.00
1181;DHT22;579;52.046;8.532;2023-04-25T00:10:18;8.80;1.00
1181;DHT22;579;52.046;8.532;2023-04-25T00:12:44;8.60;1.00
1181;DHT22;579;52.046;8.532;2023-04-25T00:15:11;8.40;1.00
1181;DHT22;579;52.046;8.532;2023-04-25T00:17:38;8.50;1.00
1181;DHT22;579;52.046;8.532;2023-04-25T00:22:49;8.50;1.00
1181;DHT22;579;52.046;8.532;2023-04-25T00:25:16;8.00;1.00
1181;DHT22;579;52.046;8.532;2023-04-25T00:27:42;8.10;1.00
1181;DHT22;579;52.046;8.532;2023-04-25T00:30:10;8.80;1.00
1181;DHT22;579;52.046;8.532;2023-04-25T00:32:37;8.20;1.00
1181;DHT22;579;52.046;8.532;2023-04-25T00:35:04;8.10;1.00
1181;DHT22;579;52.046;8.532;2023-04-25T00:37:31;8.00;1.00
1181;DHT22;579;52.046;8.532;2023-04-25T00:45:05;8.30;1.00
1181;DHT22;579;52.046;8.532;2023-04-25T00:47:33;8.40;1.00
1181;DHT22;579;52.046;8.532;2023-04-25T00:49:59;8.50;1.00
1181;DHT22;579;52.046;8.532;2023-04-25T00:52:25;8.60;1.00
1181;DHT22;579;52.046;8.532;2023-04-25T00:54:52;8.60;1.00
1181;DHT22;579;52.046;8.532;2023-04-25T00:57:18;8.50;1.00
1181;DHT22;579;52.046;8.532;2023-04-25T00:59:45;8.50;1.00
1181;DHT22;579;52.046;8.532;2023-04-25T01:07:13;8.50;1.00
1181;DHT22;579;52.046;8.532;2023-04-25T01:09:41;8.50;1.00
1181;DHT22;579;52.046;8.532;2023-04-25T01:12:07;8.40;1.00
1181;DHT22;579;52.046;8.532;2023-04-25T01:14:33;8.30;1.00
1181;DHT22;579;52.046;8.532;2023-04-25T01:17:00;8.40;1.00
1181;DHT22;579;52.046;8.532;2023-04-25T01:19:27;8.20;1.00
1181;DHT22;579;52.046;8.532;2023-04-25T01:21:54;8.20;1.00
1181;DHT22;579;52.046;8.532;2023-04-25T01:27:01;8.40;1.00
1181;DHT22;579;52.046;8.532;2023-04-25T01:29:28;7.90;1.00
1181;DHT22;579;52.046;8.532;2023-04-25T01:31:55;7.80;1.00
1181;DHT22;579;52.046;8.532;2023-04-25T01:34:22;8.00;1.00
1181;DHT22;579;52.046;8.532;2023-04-25T01:36:49;7.70;1.00
1181;DHT22;579;52.046;8.532;2023-04-25T01:39:16;7.90;1.00
1181;DHT22;579;52.046;8.532;2023-04-25T01:41:43;7.70;1.00
1181;DHT22;579;52.046;8.532;2023-04-25T01:47:52;8.10;1.00
1181;DHT22;579;52.046;8.532;2023-04-25T01:50:19;7.80;1.00
1181;DHT22;579;52.046;8.532;2023-04-25T01:52:45;8.10;1.00
1181;DHT22;579;52.046;8.532;2023-04-25T01:55:12;8.30;1.00
1181;DHT22;579;52.046;8.532;2023-04-25T01:57:39;8.40;1.00
1181;DHT22;579;52.046;8.532;2023-04-25T02:00:06;9.00;1.00
1181;DHT22;579;52.046;8.532;2023-04-25T02:02:34;8.80;1.00
1181;DHT22;579;52.046;8.532;2023-04-25T02:10:07;9.00;1.00
1181;DHT22;579;52.046;8.532;2023-04-25T02:12:33;9.00;1.00
1181;DHT22;579;52.046;8.532;2023-04-25T02:15:01;8.80;1.00
1181;DHT22;579;52.046;8.532;2023-04-25T02:17:27;9.00;1.00
1181;DHT22;579;52.046;8.532;2023-04-25T02:19:53;8.80;1.00
1181;DHT22;579;52.046;8.532;2023-04-25T02:22:20;8.80;1.00
1181;DHT22;579;52.046;8.532;2023-04-25T02:24:46;8.70;1.00
1181;DHT22;579;52.046;8.532;2023-04-25T02:32:18;9.10;1.00
1181;DHT22;579;52.046;8.532;2023-04-25T02:34:44;8.50;1.00
1181;DHT22;579;52.046;8.532;2023-04-25T02:37:10;8.60;1.00
1181;DHT22;579;52.046;8.532;2023-04-25T02:39:36;8.70;1.00
1181;DHT22;579;52.046;8.532;2023-04-25T02:42:03;9.00;1.00
1181;DHT22;579;52.046;8.532;2023-04-25T02:44:29;9.10;1.00
1181;DHT22;579;52.046;8.532;2023-04-25T02:46:56;9.20;1.00
1181;DHT22;579;52.046;8.532;2023-04-25T02:54:28;9.20;1.00
1181;DHT22;579;52.046;8.532;2023-04-25T02:56:54;9.00;1.00
1181;DHT22;579;52.046;8.532;2023-04-25T02:59:20;9.30;1.00
1181;DHT22;579;52.046;8.532;2023-04-25T03:01:47;9.20;1.00
1181;DHT22;579;52.046;8.532;2023-04-25T03:04:13;9.30;1.00
1181;DHT22;579;52.046;8.532;2023-04-25T03:06:39;9.40;1.00
1181;DHT22;579;52.046;8.532;2023-04-25T03:09:06;9.40;1.00
1181;DHT22;579;52.046;8.532;2023-04-25T03:14:52;9.30;1.00
1181;DHT22;579;52.046;8.532;2023-04-25T03:17:18;9.00;1.00
1181;DHT22;579;52.046;8.532;2023-04-25T03:19:44;9.50;1.00
1181;DHT22;579;52.046;8.532;2023-04-25T03:22:11;9.40;1.00
1181;DHT22;579;52.046;8.532;2023-04-25T03:24:37;9.50;1.00
1181;DHT22;579;52.046;8.532;2023-04-25T03:27:03;9.60;1.00
1181;DHT22;579;52.046;8.532;2023-04-25T03:29:29;9.40;1.00
1181;DHT22;579;52.046;8.532;2023-04-25T03:35:03;9.40;1.00
1181;DHT22;579;52.046;8.532;2023-04-25T03:37:30;9.00;1.00
1181;DHT22;579;52.046;8.532;2023-04-25T03:39:57;9.00;1.00
1181;DHT22;579;52.046;8.532;2023-04-25T03:42:23;9.40;1.00
1181;DHT22;579;52.046;8.532;2023-04-25T03:44:49;9.40;1.00
1181;DHT22;579;52.046;8.532;2023-04-25T03:47:16;9.30;1.00
1181;DHT22;579;52.046;8.532;2023-04-25T03:49:43;9.40;1.00
1181;DHT22;579;52.046;8.532;2023-04-25T03:57:14;9.30;1.00
1181;DHT22;579;52.046;8.532;2023-04-25T03:59:40;9.50;1.00
1181;DHT22;579;52.046;8.532;2023-04-25T04:02:07;9.40;1.00
1181;DHT22;579;52.046;8.532;2023-04-25T04:04:33;9.20;1.00
1181;DHT22;579;52.046;8.532;2023-04-25T04:06:59;8.70;1.00
1181;DHT22;579;52.046;8.532;2023-04-25T04:09:25;8.30;1.00
1181;DHT22;579;52.046;8.532;2023-04-25T04:11:53;8.20;1.00
1181;DHT22;579;52.046;8.532;2023-04-25T04:16:57;8.40;1.00
1181;DHT22;579;52.046;8.532;2023-04-25T04:19:23;8.80;1.00
1181;DHT22;579;52.046;8.532;2023-04-25T04:21:49;8.80;1.00
1181;DHT22;579;52.046;8.532;2023-04-25T04:24:16;8.70;1.00
1181;DHT22;579;52.046;8.532;2023-04-25T04:26:42;8.90;1.00
1181;DHT22;579;52.046;8.532;2023-04-25T04:29:10;8.70;1.00
1181;DHT22;579;52.046;8.532;2023-04-25T04:31:36;8.80;1.00
1181;DHT22;579;52.046;8.532;2023-04-25T04:39:02;8.80;1.00
1181;DHT22;579;52.046;8.532;2023-04-25T04:41:29;9.00;1.00
1181;DHT22;579;52.046;8.532;2023-04-25T04:43:55;9.00;1.00
1181;DHT22;579;52.046;8.532;2023-04-25T04:46:21;8.90;1.00
1181;DHT22;579;52.046;8.532;2023-04-25T04:48:50;9.00;1.00
1181;DHT22;579;52.046;8.532;2023-04-25T04:51:16;9.10;1.00
1181;DHT22;579;52.046;8.532;2023-04-25T04:53:42;9.20;1.00
1181;DHT22;579;52.046;8.532;2023-04-25T04:59:01;8.90;1.00
1181;DHT22;579;52.046;8.532;2023-04-25T05:01:28;8.80;1.00
1181;DHT22;579;52.046;8.532;2023-04-25T05:03:55;9.00;1.00
1181;DHT22;579;52.046;8.532;2023-04-25T05:06:25;8.90;1.00
1181;DHT22;579;52.046;8.532;2023-04-25T05:08:52;9.00;1.00
1181;DHT22;579;52.046;8.532;2023-04-25T05:11:19;8.90;1.00
1181;DHT22;579;52.046;8.532;2023-04-25T05:13:45;8.90;1.00
1181;DHT22;579;52.046;8.532;2023-04-25T05:21:16;9.00;1.00
1181;DHT22;579;52.046;8.532;2023-04-25T05:23:42;9.20;1.00
1181;DHT22;579;52.046;8.532;2023-04-25T05:26:09;9.00;1.00
1181;DHT22;579;52.046;8.532;2023-04-25T05:28:39;9.00;1.00
1181;DHT22;579;52.046;8.532;2023-04-25T05:31:06;9.00;1.00
1181;DHT22;579;52.046;8.532;2023-04-25T05:33:32;9.30;1.00
1181;DHT22;579;52.046;8.532;2023-04-25T05:35:59;9.50;1.00
1181;DHT22;579;52.046;8.532;2023-04-25T05:41:29;9.60;1.00
1181;DHT22;579;52.046;8.532;2023-04-25T05:43:56;9.20;1.00
1181;DHT22;579;52.046;8.532;2023-04-25T05:46:22;9.50;1.00
1181;DHT22;579;52.046;8.532;2023-04-25T05:48:48;9.50;1.00
1181;DHT22;579;52.046;8.532;2023-04-25T05:51:14;9.50;1.00
1181;DHT22;579;52.046;8.532;2023-04-25T05:53:41;9.60;1.00
1181;DHT22;579;52.046;8.532;2023-04-25T05:56:08;9.50;1.00
1181;DHT22;579;52.046;8.532;2023-04-25T06:03:38;9.60;1.00
1181;DHT22;579;52.046;8.532;2023-04-25T06:06:04;9.60;1.00
1181;DHT22;579;52.046;8.532;2023-04-25T06:08:31;9.60;1.00
1181;DHT22;579;52.046;8.532;2023-04-25T06:10:57;9.50;1.00
1181;DHT22;579;52.046;8.532;2023-04-25T06:13:24;9.50;1.00
1181;DHT22;579;52.046;8.532;2023-04-25T06:15:50;9.60;1.00
1181;DHT22;579;52.046;8.532;2023-04-25T06:18:16;9.80;1.00
1181;DHT22;579;52.046;8.532;2023-04-25T06:25:48;9.50;1.00
1181;DHT22;579;52.046;8.532;2023-04-25T06:28:14;9.70;1.00
1181;DHT22;579;52.046;8.532;2023-04-25T06:30:41;9.50;1.00
1181;DHT22;579;52.046;8.532;2023-04-25T06:33:07;9.50;1.00
1181;DHT22;579;52.046;8.532;2023-04-25T06:35:34;9.70;1.00
1181;DHT22;579;52.046;8.532;2023-04-25T06:38:00;9.80;1.00
1181;DHT22;579;52.046;8.532;2023-04-25T06:40:26;9.80;1.00
1181;DHT22;579;52.046;8.532;2023-04-25T06:47:53;10.40;1.00
1181;DHT22;579;52.046;8.532;2023-04-25T06:50:19;9.80;1.00
1181;DHT22;579;52.046;8.532;2023-04-25T06:52:45;9.90;1.00
1181;DHT22;579;52.046;8.532;2023-04-25T06:55:12;10.00;1.00
1181;DHT22;579;52.046;8.532;2023-04-25T06:57:38;10.00;1.00
1181;DHT22;579;52.046;8.532;2023-04-25T07:00:06;9.70;1.00
1181;DHT22;579;52.046;8.532;2023-04-25T07:02:34;9.60;1.00
1181;DHT22;579;52.046;8.532;2023-04-25T07:10:07;10.00;1.00
1181;DHT22;579;52.046;8.532;2023-04-25T07:12:34;10.10;1.00
1181;DHT22;579;52.046;8.532;2023-04-25T07:15:00;10.20;1.00
1181;DHT22;579;52.046;8.532;2023-04-25T07:17:31;10.00;1.00
1181;DHT22;579;52.046;8.532;2023-04-25T07:19:58;9.90;1.00
1181;DHT22;579;52.046;8.532;2023-04-25T07:22:25;9.80;1.00
1181;DHT22;579;52.046;8.532;2023-04-25T07:24:51;9.90;1.00
1181;DHT22;579;52.046;8.532;2023-04-25T07:30:53;10.00;1.00
1181;DHT22;579;52.046;8.532;2023-04-25T07:33:20;10.40;1.00
1181;DHT22;579;52.046;8.532;2023-04-25T07:35:46;10.50;1.00
1181;DHT22;579;52.046;8.532;2023-04-25T07:38:12;10.70;1.00
1181;DHT22;579;52.046;8.532;2023-04-25T07:40:38;10.90;1.00
1181;DHT22;579;52.046;8.532;2023-04-25T07:43:04;11.40;1.00
1181;DHT22;579;52.046;8.532;2023-04-25T07:45:31;11.40;1.00
1181;DHT22;579;52.046;8.532;2023-04-25T07:53:02;10.40;1.00
1181;DHT22;579;52.046;8.532;2023-04-25T07:55:29;10.70;1.00
1181;DHT22;579;52.046;8.532;2023-04-25T07:57:55;10.80;1.00
1181;DHT22;579;52.046;8.532;2023-04-25T08:00:22;10.90;1.00
1181;DHT22;579;52.046;8.532;2023-04-25T08:02:48;10.70;1.00
1181;DHT22;579;52.046;8.532;2023-04-25T08:05:16;10.90;1.00
1181;DHT22;579;52.046;8.532;2023-04-25T08:07:42;10.90;1.00
1181;DHT22;579;52.046;8.532;2023-04-25T08:15:19;11.40;1.00
1181;DHT22;579;52.046;8.532;2023-04-25T08:17:45;11.60;1.00
1181;DHT22;579;52.046;8.532;2023-04-25T08:20:12;11.60;1.00
1181;DHT22;579;52.046;8.532;2023-04-25T08:22:38;11.60;1.00
1181;DHT22;579;52.046;8.532;2023-04-25T08:25:05;11.60;1.00
1181;DHT22;579;52.046;8.532;2023-04-25T08:27:32;11.80;1.00
1181;DHT22;579;52.046;8.532;2023-04-25T08:29:58;11.70;1.00
1181;DHT22;579;52.046;8.532;2023-04-25T08:35:20;11.70;1.00
1181;DHT22;579;52.046;8.532;2023-04-25T08:37:47;12.10;1.00
1181;DHT22;579;52.046;8.532;2023-04-25T08:40:15;12.10;1.00
1181;DHT22;579;52.046;8.532;2023-04-25T08:42:42;12.20;1.00
1181;DHT22;579;52.046;8.532;2023-04-25T08:45:09;12.00;1.00
1181;DHT22;579;52.046;8.532;2023-04-25T08:47:37;11.90;1.00
1181;DHT22;579;52.046;8.532;2023-04-25T08:50:05;12.00;1.00
1181;DHT22;579;52.046;8.532;2023-04-25T08:57:38;13.10;1.00
1181;DHT22;579;52.046;8.532;2023-04-25T09:00:08;12.80;1.00
1181;DHT22;579;52.046;8.532;2023-04-25T09:02:35;12.90;1.00
1181;DHT22;579;52.046;8.532;2023-04-25T09:05:02;12.60;1.00
1181;DHT22;579;52.046;8.532;2023-04-25T09:07:29;12.10;1.00
1181;DHT22;579;52.046;8.532;2023-04-25T09:09:55;12.40;1.00
1181;DHT22;579;52.046;8.532;2023-04-25T09:12:22;13.00;1.00
1181;DHT22;579;52.046;8.532;2023-04-25T09:20:10;13.30;1.00
1181;DHT22;579;52.046;8.532;2023-04-25T09:22:37;13.00;1.00
1181;DHT22;579;52.046;8.532;2023-04-25T09:25:08;12.90;1.00
1181;DHT22;579;52.046;8.532;2023-04-25T09:27:35;12.40;1.00
1181;DHT22;579;52.046;8.532;2023-04-25T09:30:02;12.30;1.00
1181;DHT22;579;52.046;8.532;2023-04-25T09:32:29;12.80;1.00
1181;DHT22;579;52.046;8.532;2023-04-25T09:34:57;13.40;1.00
1181;DHT22;579;52.046;8.532;2023-04-25T09:42:26;13.40;1.00
1181;DHT22;579;52.046;8.532;2023-04-25T09:44:55;13.20;1.00
1181;DHT22;579;52.046;8.532;2023-04-25T09:47:23;12.80;1.00
1181;DHT22;579;52.046;8.532;2023-04-25T09:49:51;12.50;1.00
1181;DHT22;579;52.046;8.532;2023-04-25T09:52:19;12.10;1.00
1181;DHT22;579;52.046;8.532;2023-04-25T09:54:47;11.90;1.00
1181;DHT22;579;52.046;8.532;2023-04-25T09:57:15;11.90;1.00
1181;DHT22;579;52.046;8.532;2023-04-25T10:04:50;11.50;1.00
1181;DHT22;579;52.046;8.532;2023-04-25T10:07:18;11.50;1.00
1181;DHT22;579;52.046;8.532;2023-04-25T10:09:48;11.30;1.00
1181;DHT22;579;52.046;8.532;2023-04-25T10:12:16;11.40;1.00
1181;DHT22;579;52.046;8.532;2023-04-25T10:14:44;11.40;1.00
1181;DHT22;579;52.046;8.532;2023-04-25T10:17:11;11.20;1.00
1181;DHT22;579;52.046;8.532;2023-04-25T10:19:38;11.30;1.00
1181;DHT22;579;52.046;8.532;2023-04-25T10:27:10;11.40;1.00
1181;DHT22;579;52.046;8.532;2023-04-25T10:29:37;11.30;1.00
1181;DHT22;579;52.046;8.532;2023-04-25T10:32:04;11.40;1.00
1181;DHT22;579;52.046;8.532;2023-04-25T10:34:41;11.50;1.00
1181;DHT22;579;52.046;8.532;2023-04-25T10:37:10;11.50;1.00
1181;DHT22;579;52.046;8.532;2023-04-25T10:39:39;11.50;1.00
1181;DHT22;579;52.046;8.532;2023-04-25T10:42:06;11.50;1.00
1181;DHT22;579;52.046;8.532;2023-04-25T10:49:44;12.30;1.00
1181;DHT22;579;52.046;8.532;2023-04-25T10:52:18;12.20;1.00
1181;DHT22;579;52.046;8.532;2023-04-25T10:54:52;12.40;1.00
1181;DHT22;579;52.046;8.532;2023-04-25T10:57:32;12.60;1.00
1181;DHT22;579;52.046;8.532;2023-04-25T11:00:07;12.90;1.00
1181;DHT22;579;52.046;8.532;2023-04-25T11:02:44;13.10;1.00
1181;DHT22;579;52.046;8.532;2023-04-25T11:07:56;13.00;1.00
1181;DHT22;579;52.046;8.532;2023-04-25T11:10:25;12.30;1.00
1181;DHT22;579;52.046;8.532;2023-04-25T11:12:52;12.00;1.00
1181;DHT22;579;52.046;8.532;2023-04-25T11:15:19;11.70;1.00
1181;DHT22;579;52.046;8.532;2023-04-25T11:17:45;11.30;1.00
1181;DHT22;579;52.046;8.532;2023-04-25T11:20:12;11.20;1.00
1181;DHT22;579;52.046;8.532;2023-04-25T11:22:39;11.20;1.00
1181;DHT22;579;52.046;8.532;2023-04-25T11:30:12;11.20;1.00
1181;DHT22;579;52.046;8.532;2023-04-25T11:32:40;12.10;1.00
1181;DHT22;579;52.046;8.532;2023-04-25T11:35:07;12.70;1.00
1181;DHT22;579;52.046;8.532;2023-04-25T11:37:33;13.00;1.00
1181;DHT22;579;52.046;8.532;2023-04-25T11:40:00;13.00;1.00
1181;DHT22;579;52.046;8.532;2023-04-25T11:42:26;13.10;1.00
1181;DHT22;579;52.046;8.532;2023-04-25T11:44:52;12.80;1.00
1181;DHT22;579;52.046;8.532;2023-04-25T11:51:53;12.10;1.00
1181;DHT22;579;52.046;8.532;2023-04-25T11:54:20;11.40;1.00
1181;DHT22;579;52.046;8.532;2023-04-25T11:56:46;10.70;1.00
1181;DHT22;579;52.046;8.532;2023-04-25T11:59:13;10.50;1.00
1181;DHT22;579;52.046;8.532;2023-04-25T12:01:41;10.90;1.00
1181;DHT22;579;52.046;8.532;2023-04-25T12:04:15;10.80;1.00
1181;DHT22;579;52.046;8.532;2023-04-25T12:06:43;11.20;1.00
1181;DHT22;579;52.046;8.532;2023-04-25T12:14:23;12.40;1.00
1181;DHT22;579;52.046;8.532;2023-04-25T12:16:50;13.20;1.00
1181;DHT22;579;52.046;8.532;2023-04-25T12:19:18;13.80;1.00
1181;DHT22;579;52.046;8.532;2023-04-25T12:21:46;14.80;1.00
1181;DHT22;579;52.046;8.532;2023-04-25T12:24:14;15.40;1.00
1181;DHT22;579;52.046;8.532;2023-04-25T12:26:48;15.80;1.00
1181;DHT22;579;52.046;8.532;2023-04-25T12:29:17;15.60;1.00
1181;DHT22;579;52.046;8.532;2023-04-25T12:36:43;14.80;1.00
1181;DHT22;579;52.046;8.532;2023-04-25T12:39:14;14.50;1.00
1181;DHT22;579;52.046;8.532;2023-04-25T12:41:41;14.30;1.00
1181;DHT22;579;52.046;8.532;2023-04-25T12:44:08;14.80;1.00
1181;DHT22;579;52.046;8.532;2023-04-25T12:46:34;16.00;1.00
1181;DHT22;579;52.046;8.532;2023-04-25T12:49:01;16.80;1.00
1181;DHT22;579;52.046;8.532;2023-04-25T12:51:28;16.80;1.00
1181;DHT22;579;52.046;8.532;2023-04-25T12:59:01;16.30;1.00
1181;DHT22;579;52.046;8.532;2023-04-25T13:01:28;18.30;1.00
1181;DHT22;579;52.046;8.532;2023-04-25T13:03:55;19.30;1.00
1181;DHT22;579;52.046;8.532;2023-04-25T13:06:21;18.60;1.00
1181;DHT22;579;52.046;8.532;2023-04-25T13:08:48;17.80;1.00
1181;DHT22;579;52.046;8.532;2023-04-25T13:11:15;17.30;1.00
1181;DHT22;579;52.046;8.532;2023-04-25T13:13:41;16.70;1.00
1181;DHT22;579;52.046;8.532;2023-04-25T13:21:20;12.30;1.00
1181;DHT22;579;52.046;8.532;2023-04-25T13:23:46;11.60;1.00
1181;DHT22;579;52.046;8.532;2023-04-25T13:26:12;10.90;1.00
1181;DHT22;579;52.046;8.532;2023-04-25T13:28:39;10.10;1.00
1181;DHT22;579;52.046;8.532;2023-04-25T13:31:06;9.70;1.00
1181;DHT22;579;52.046;8.532;2023-04-25T13:33:33;9.60;1.00
1181;DHT22;579;52.046;8.532;2023-04-25T13:36:01;9.70;1.00
1181;DHT22;579;52.046;8.532;2023-04-25T13:41:55;10.20;1.00
1181;DHT22;579;52.046;8.532;2023-04-25T13:44:22;10.80;1.00
1181;DHT22;579;52.046;8.532;2023-04-25T13:46:48;11.70;1.00
1181;DHT22;579;52.046;8.532;2023-04-25T13:49:14;12.90;1.00
1181;DHT22;579;52.046;8.532;2023-04-25T13:51:41;14.50;1.00
1181;DHT22;579;52.046;8.532;2023-04-25T13:54:07;15.50;1.00
1181;DHT22;579;52.046;8.532;2023-04-25T13:56:34;16.50;1.00
1181;DHT22;579;52.046;8.532;2023-04-25T14:01:40;18.70;1.00
1181;DHT22;579;52.046;8.532;2023-04-25T14:04:07;19.80;1.00
1181;DHT22;579;52.046;8.532;2023-04-25T14:06:33;20.40;1.00
1181;DHT22;579;52.046;8.532;2023-04-25T14:09:01;21.00;1.00
1181;DHT22;579;52.046;8.532;2023-04-25T14:11:27;21.30;1.00
1181;DHT22;579;52.046;8.532;2023-04-25T14:13:53;21.20;1.00
1181;DHT22;579;52.046;8.532;2023-04-25T14:16:20;22.10;1.00
1181;DHT22;579;52.046;8.532;2023-04-25T14:23:51;21.90;1.00
1181;DHT22;579;52.046;8.532;2023-04-25T14:26:17;21.90;1.00
1181;DHT22;579;52.046;8.532;2023-04-25T14:28:43;21.70;1.00
1181;DHT22;579;52.046;8.532;2023-04-25T14:31:09;20.00;1.00
1181;DHT22;579;52.046;8.532;2023-04-25T14:33:36;18.90;1.00
1181;DHT22;579;52.046;8.532;2023-04-25T14:36:05;18.70;1.00
1181;DHT22;579;52.046;8.532;2023-04-25T14:38:32;17.60;1.00
1181;DHT22;579;52.046;8.532;2023-04-25T14:45:59;17.40;1.00
1181;DHT22;579;52.046;8.532;2023-04-25T14:48:25;20.90;1.00
1181;DHT22;579;52.046;8.532;2023-04-25T14:50:51;20.80;1.00
1181;DHT22;579;52.046;8.532;2023-04-25T14:53:18;19.60;1.00
1181;DHT22;579;52.046;8.532;2023-04-25T14:55:44;19.40;1.00
1181;DHT22;579;52.046;8.532;2023-04-25T14:58:11;20.80;1.00
1181;DHT22;579;52.046;8.532;2023-04-25T15:00:38;20.90;1.00
1181;DHT22;579;52.046;8.532;2023-04-25T15:07:24;22.60;1.00
1181;DHT22;579;52.046;8.532;2023-04-25T15:09:51;22.80;1.00
1181;DHT22;579;52.046;8.532;2023-04-25T15:12:18;21.30;1.00
1181;DHT22;579;52.046;8.532;2023-04-25T15:14:45;19.70;1.00
1181;DHT22;579;52.046;8.532;2023-04-25T15:17:12;17.80;1.00
1181;DHT22;579;52.046;8.532;2023-04-25T15:19:45;16.80;1.00
1181;DHT22;579;52.046;8.532;2023-04-25T15:22:12;16.90;1.00
1181;DHT22;579;52.046;8.532;2023-04-25T15:28:22;18.80;1.00
1181;DHT22;579;52.046;8.532;2023-04-25T15:30:48;21.20;1.00
1181;DHT22;579;52.046;8.532;2023-04-25T15:33:16;20.00;1.00
1181;DHT22;579;52.046;8.532;2023-04-25T15:35:42;19.40;1.00
1181;DHT22;579;52.046;8.532;2023-04-25T15:38:08;17.70;1.00
1181;DHT22;579;52.046;8.532;2023-04-25T15:40:36;16.90;1.00
1181;DHT22;579;52.046;8.532;2023-04-25T15:43:02;16.10;1.00
1181;DHT22;579;52.046;8.532;2023-04-25T15:50:24;14.80;1.00
1181;DHT22;579;52.046;8.532;2023-04-25T15:52:51;14.70;1.00
1181;DHT22;579;52.046;8.532;2023-04-25T15:55:19;14.50;1.00
1181;DHT22;579;52.046;8.532;2023-04-25T15:57:47;13.80;1.00
1181;DHT22;579;52.046;8.532;2023-04-25T16:00:14;13.50;1.00
1181;DHT22;579;52.046;8.532;2023-04-25T16:02:43;13.60;1.00
1181;DHT22;579;52.046;8.532;2023-04-25T16:05:10;13.80;1.00
1181;DHT22;579;52.046;8.532;2023-04-25T16:11:55;13.40;1.00
1181;DHT22;579;52.046;8.532;2023-04-25T16:14:21;13.10;1.00
1181;DHT22;579;52.046;8.532;2023-04-25T16:16:48;12.70;1.00
1181;DHT22;579;52.046;8.532;2023-04-25T16:19:15;12.20;1.00
1181;DHT22;579;52.046;8.532;2023-04-25T16:21:42;11.70;1.00
1181;DHT22;579;52.046;8.532;2023-04-25T16:24:09;11.60;1.00
1181;DHT22;579;52.046;8.532;2023-04-25T16:26:35;11.30;1.00
1181;DHT22;579;52.046;8.532;2023-04-25T16:32:52;10.00;1.00
1181;DHT22;579;52.046;8.532;2023-04-25T16:35:21;10.20;1.00
1181;DHT22;579;52.046;8.532;2023-04-25T16:37:48;9.40;1.00
1181;DHT22;579;52.046;8.532;2023-04-25T16:40:15;9.20;1.00
1181;DHT22;579;52.046;8.532;2023-04-25T16:42:42;9.00;1.00
1181;DHT22;579;52.046;8.532;2023-04-25T16:45:13;8.60;1.00
1181;DHT22;579;52.046;8.532;2023-04-25T16:47:42;8.60;1.00
1181;DHT22;579;52.046;8.532;2023-04-25T16:53:54;9.00;1.00
1181;DHT22;579;52.046;8.532;2023-04-25T16:56:21;9.20;1.00
1181;DHT22;579;52.046;8.532;2023-04-25T16:58:49;9.30;1.00
1181;DHT22;579;52.046;8.532;2023-04-25T17:01:16;9.40;1.00
1181;DHT22;579;52.046;8.532;2023-04-25T17:03:44;9.60;1.00
1181;DHT22;579;52.046;8.532;2023-04-25T17:06:12;9.80;1.00
1181;DHT22;579;52.046;8.532;2023-04-25T17:08:39;10.20;1.00
1181;DHT22;579;52.046;8.532;2023-04-25T17:13:46;9.90;1.00
1181;DHT22;579;52.046;8.532;2023-04-25T17:16:13;10.30;1.00
1181;DHT22;579;52.046;8.532;2023-04-25T17:18:42;10.50;1.00
1181;DHT22;579;52.046;8.532;2023-04-25T17:21:09;10.70;1.00
1181;DHT22;579;52.046;8.532;2023-04-25T17:23:35;10.70;1.00
1181;DHT22;579;52.046;8.532;2023-04-25T17:26:09;10.70;1.00
1181;DHT22;579;52.046;8.532;2023-04-25T17:28:36;10.70;1.00
1181;DHT22;579;52.046;8.532;2023-04-25T17:33:41;10.90;1.00
1181;DHT22;579;52.046;8.532;2023-04-25T17:36:09;10.90;1.00
1181;DHT22;579;52.046;8.532;2023-04-25T17:38:35;10.70;1.00
1181;DHT22;579;52.046;8.532;2023-04-25T17:41:03;10.70;1.00
1181;DHT22;579;52.046;8.532;2023-04-25T17:43:30;10.60;1.00
1181;DHT22;579;52.046;8.532;2023-04-25T17:45:57;10.50;1.00
1181;DHT22;579;52.046;8.532;2023-04-25T17:48:24;10.50;1.00
1181;DHT22;579;52.046;8.532;2023-04-25T17:53:27;10.50;1.00
1181;DHT22;579;52.046;8.532;2023-04-25T17:55:53;10.20;1.00
1181;DHT22;579;52.046;8.532;2023-04-25T17:58:21;10.30;1.00
1181;DHT22;579;52.046;8.532;2023-04-25T18:00:47;10.20;1.00
1181;DHT22;579;52.046;8.532;2023-04-25T18:03:14;9.80;1.00
1181;DHT22;579;52.046;8.532;2023-04-25T18:05:40;9.70;1.00
1181;DHT22;579;52.046;8.532;2023-04-25T18:08:07;10.00;1.00
1181;DHT22;579;52.046;8.532;2023-04-25T18:13:55;10.10;1.00
1181;DHT22;579;52.046;8.532;2023-04-25T18:16:22;9.80;1.00
1181;DHT22;579;52.046;8.532;2023-04-25T18:18:49;9.70;1.00
1181;DHT22;579;52.046;8.532;2023-04-25T18:21:17;9.80;1.00
1181;DHT22;579;52.046;8.532;2023-04-25T18:23:44;10.10;1.00
1181;DHT22;579;52.046;8.532;2023-04-25T18:26:11;10.20;1.00
1181;DHT22;579;52.046;8.532;2023-04-25T18:28:37;10.40;1.00
1181;DHT22;579;52.046;8.532;2023-04-25T18:34:23;10.50;1.00
1181;DHT22;579;52.046;8.532;2023-04-25T18:36:51;10.90;1.00
1181;DHT22;579;52.046;8.532;2023-04-25T18:39:18;10.70;1.00
1181;DHT22;579;52.046;8.532;2023-04-25T18:41:45;10.50;1.00
1181;DHT22;579;52.046;8.532;2023-04-25T18:44:11;10.70;1.00
1181;DHT22;579;52.046;8.532;2023-04-25T18:46:38;10.80;1.00
1181;DHT22;579;52.046;8.532;2023-04-25T18:49:08;10.60;1.00
1181;DHT22;579;52.046;8.532;2023-04-25T18:54:12;10.60;1.00
1181;DHT22;579;52.046;8.532;2023-04-25T18:56:38;10.40;1.00
1181;DHT22;579;52.046;8.532;2023-04-25T18:59:05;10.40;1.00
1181;DHT22;579;52.046;8.532;2023-04-25T19:01:33;10.30;1.00
1181;DHT22;579;52.046;8.532;2023-04-25T19:04:00;10.40;1.00
1181;DHT22;579;52.046;8.532;2023-04-25T19:06:27;10.40;1.00
1181;DHT22;579;52.046;8.532;2023-04-25T19:08:54;10.40;1.00
1181;DHT22;579;52.046;8.532;2023-04-25T19:14:04;10.20;1.00
1181;DHT22;579;52.046;8.532;2023-04-25T19:16:31;10.00;1.00
1181;DHT22;579;52.046;8.532;2023-04-25T19:19:03;9.80;1.00
1181;DHT22;579;52.046;8.532;2023-04-25T19:21:31;9.80;1.00
1181;DHT22;579;52.046;8.532;2023-04-25T19:23:57;9.90;1.00
1181;DHT22;579;52.046;8.532;2023-04-25T19:26:26;10.00;1.00
1181;DHT22;579;52.046;8.532;2023-04-25T19:29:08;9.60;1.00
1181;DHT22;579;52.046;8.532;2023-04-25T19:36:42;9.80;1.00
1181;DHT22;579;52.046;8.532;2023-04-25T19:39:09;9.80;1.00
1181;DHT22;579;52.046;8.532;2023-04-25T19:41:37;9.70;1.00
1181;DHT22;579;52.046;8.532;2023-04-25T19:44:04;9.50;1.00
1181;DHT22;579;52.046;8.532;2023-04-25T19:46:32;9.80;1.00
1181;DHT22;579;52.046;8.532;2023-04-25T19:48:59;9.50;1.00
1181;DHT22;579;52.046;8.532;2023-04-25T19:51:26;9.30;1.00
1181;DHT22;579;52.046;8.532;2023-04-25T19:56:33;9.30;1.00
1181;DHT22;579;52.046;8.532;2023-04-25T19:59:00;8.80;1.00
1181;DHT22;579;52.046;8.532;2023-04-25T20:01:27;8.60;1.00
1181;DHT22;579;52.046;8.532;2023-04-25T20:03:55;8.50;1.00
1181;DHT22;579;52.046;8.532;2023-04-25T20:06:21;8.30;1.00
1181;DHT22;579;52.046;8.532;2023-04-25T20:08:51;8.50;1.00
1181;DHT22;579;52.046;8.532;2023-04-25T20:11:17;8.40;1.00
1181;DHT22;579;52.046;8.532;2023-04-25T20:17:24;8.60;1.00
1181;DHT22;579;52.046;8.532;2023-04-25T20:19:51;9.00;1.00
1181;DHT22;579;52.046;8.532;2023-04-25T20:22:21;9.20;1.00
1181;DHT22;579;52.046;8.532;2023-04-25T20:24:48;8.80;1.00
1181;DHT22;579;52.046;8.532;2023-04-25T20:27:15;8.90;1.00
1181;DHT22;579;52.046;8.532;2023-04-25T20:29:41;8.50;1.00
1181;DHT22;579;52.046;8.532;2023-04-25T20:32:08;8.70;1.00
1181;DHT22;579;52.046;8.532;2023-04-25T20:37:54;8.60;1.00
1181;DHT22;579;52.046;8.532;2023-04-25T20:40:21;8.70;1.00
1181;DHT22;579;52.046;8.532;2023-04-25T20:42:48;8.70;1.00